sensor_id;sensor_type;location;lat;lon;timestamp;P1;durP1;ratioP1;P2;durP2;ratioP2
28078;SDS011;15388;42.238;24.684;2024-02-21T00:00:15;119.85;;;69.55;;
28078;SDS011;15388;42.238;24.684;2024-02-21T00:02:41;128.15;;;67.88;;
28078;SDS011;15388;42.238;24.684;2024-02-21T00:05:06;138.50;;;72.72;;
28078;SDS011;15388;42.238;24.684;2024-02-21T00:07:32;134.98;;;73.32;;
28078;SDS011;15388;42.238;24.684;2024-02-21T00:09:57;129.65;;;70.20;;
28078;SDS011;15388;42.238;24.684;2024-02-21T00:12:22;152.57;;;76.75;;
28078;SDS011;15388;42.238;24.684;2024-02-21T00:14:48;141.57;;;74.43;;
28078;SDS011;15388;42.238;24.684;2024-02-21T00:17:13;146.70;;;75.18;;
28078;SDS011;15388;42.238;24.684;2024-02-21T00:19:38;143.63;;;74.85;;
28078;SDS011;15388;42.238;24.684;2024-02-21T00:22:03;161.02;;;80.25;;
28078;SDS011;15388;42.238;24.684;2024-02-21T00:24:29;156.68;;;81.90;;
28078;SDS011;15388;42.238;24.684;2024-02-21T00:26:54;155.93;;;78.28;;
28078;SDS011;15388;42.238;24.684;2024-02-21T00:29:19;145.43;;;75.63;;
28078;SDS011;15388;42.238;24.684;2024-02-21T00:31:44;143.80;;;76.57;;
28078;SDS011;15388;42.238;24.684;2024-02-21T00:34:10;146.68;;;78.57;;
28078;SDS011;15388;42.238;24.684;2024-02-21T00:36:36;147.18;;;78.68;;
28078;SDS011;15388;42.238;24.684;2024-02-21T00:39:01;139.70;;;74.00;;
28078;SDS011;15388;42.238;24.684;2024-02-21T00:41:26;148.57;;;77.68;;
28078;SDS011;15388;42.238;24.684;2024-02-21T00:43:52;155.90;;;83.43;;
28078;SDS011;15388;42.238;24.684;2024-02-21T00:46:17;146.32;;;79.90;;
28078;SDS011;15388;42.238;24.684;2024-02-21T00:48:42;141.48;;;74.40;;
28078;SDS011;15388;42.238;24.684;2024-02-21T00:51:07;139.45;;;72.10;;
28078;SDS011;15388;42.238;24.684;2024-02-21T00:53:33;135.13;;;72.30;;
28078;SDS011;15388;42.238;24.684;2024-02-21T00:55:58;120.75;;;68.40;;
28078;SDS011;15388;42.238;24.684;2024-02-21T00:58:23;128.82;;;67.18;;
28078;SDS011;15388;42.238;24.684;2024-02-21T01:00:49;130.15;;;66.63;;
28078;SDS011;15388;42.238;24.684;2024-02-21T01:03:14;167.40;;;91.38;;
28078;SDS011;15388;42.238;24.684;2024-02-21T01:05:39;169.13;;;92.75;;
28078;SDS011;15388;42.238;24.684;2024-02-21T01:08:05;131.90;;;69.82;;
28078;SDS011;15388;42.238;24.684;2024-02-21T01:10:30;128.27;;;67.57;;
28078;SDS011;15388;42.238;24.684;2024-02-21T01:12:55;125.65;;;68.53;;
28078;SDS011;15388;42.238;24.684;2024-02-21T01:15:20;120.55;;;63.60;;
28078;SDS011;15388;42.238;24.684;2024-02-21T01:17:46;122.15;;;65.90;;
28078;SDS011;15388;42.238;24.684;2024-02-21T01:20:11;121.00;;;63.65;;
28078;SDS011;15388;42.238;24.684;2024-02-21T01:22:36;127.47;;;65.30;;
28078;SDS011;15388;42.238;24.684;2024-02-21T01:25:02;120.88;;;63.75;;
28078;SDS011;15388;42.238;24.684;2024-02-21T01:27:27;119.38;;;67.10;;
28078;SDS011;15388;42.238;24.684;2024-02-21T01:29:52;124.00;;;64.18;;
28078;SDS011;15388;42.238;24.684;2024-02-21T01:32:18;124.13;;;62.47;;
28078;SDS011;15388;42.238;24.684;2024-02-21T01:34:43;126.97;;;64.25;;
28078;SDS011;15388;42.238;24.684;2024-02-21T01:37:08;117.35;;;64.72;;
28078;SDS011;15388;42.238;24.684;2024-02-21T01:39:34;113.68;;;60.38;;
28078;SDS011;15388;42.238;24.684;2024-02-21T01:41:59;135.10;;;66.15;;
28078;SDS011;15388;42.238;24.684;2024-02-21T01:44:24;119.93;;;61.33;;
28078;SDS011;15388;42.238;24.684;2024-02-21T01:46:50;111.75;;;59.70;;
28078;SDS011;15388;42.238;24.684;2024-02-21T01:49:16;107.63;;;59.15;;
28078;SDS011;15388;42.238;24.684;2024-02-21T01:51:42;111.10;;;58.95;;
28078;SDS011;15388;42.238;24.684;2024-02-21T01:54:07;108.22;;;59.83;;
28078;SDS011;15388;42.238;24.684;2024-02-21T01:56:33;117.90;;;59.90;;
28078;SDS011;15388;42.238;24.684;2024-02-21T01:58:59;112.28;;;56.35;;
28078;SDS011;15388;42.238;24.684;2024-02-21T02:01:24;114.03;;;58.50;;
28078;SDS011;15388;42.238;24.684;2024-02-21T02:03:50;159.40;;;66.10;;
28078;SDS011;15388;42.238;24.684;2024-02-21T02:06:15;150.63;;;72.55;;
28078;SDS011;15388;42.238;24.684;2024-02-21T02:08:41;163.07;;;77.35;;
28078;SDS011;15388;42.238;24.684;2024-02-21T02:11:07;198.55;;;87.43;;
28078;SDS011;15388;42.238;24.684;2024-02-21T02:13:32;181.13;;;82.05;;
28078;SDS011;15388;42.238;24.684;2024-02-21T02:15:57;153.45;;;78.47;;
28078;SDS011;15388;42.238;24.684;2024-02-21T02:18:23;149.52;;;74.22;;
28078;SDS011;15388;42.238;24.684;2024-02-21T02:20:48;138.10;;;66.35;;
28078;SDS011;15388;42.238;24.684;2024-02-21T02:25:51;120.05;;;64.05;;
28078;SDS011;15388;42.238;24.684;2024-02-21T02:28:19;123.07;;;62.60;;
28078;SDS011;15388;42.238;24.684;2024-02-21T02:30:45;115.30;;;60.08;;
28078;SDS011;15388;42.238;24.684;2024-02-21T02:33:10;114.35;;;60.67;;
28078;SDS011;15388;42.238;24.684;2024-02-21T02:35:35;134.63;;;62.35;;
28078;SDS011;15388;42.238;24.684;2024-02-21T02:38:01;117.18;;;59.53;;
28078;SDS011;15388;42.238;24.684;2024-02-21T02:40:26;109.35;;;59.22;;
28078;SDS011;15388;42.238;24.684;2024-02-21T02:42:52;117.95;;;58.80;;
28078;SDS011;15388;42.238;24.684;2024-02-21T02:45:20;116.68;;;57.28;;
28078;SDS011;15388;42.238;24.684;2024-02-21T02:47:46;115.30;;;59.78;;
28078;SDS011;15388;42.238;24.684;2024-02-21T02:50:11;107.28;;;58.33;;
28078;SDS011;15388;42.238;24.684;2024-02-21T02:52:36;110.13;;;58.63;;
28078;SDS011;15388;42.238;24.684;2024-02-21T02:55:02;97.93;;;54.63;;
28078;SDS011;15388;42.238;24.684;2024-02-21T02:57:27;111.13;;;57.30;;
28078;SDS011;15388;42.238;24.684;2024-02-21T02:59:52;100.15;;;51.38;;
28078;SDS011;15388;42.238;24.684;2024-02-21T03:02:18;98.63;;;53.95;;
28078;SDS011;15388;42.238;24.684;2024-02-21T03:04:43;102.18;;;55.20;;
28078;SDS011;15388;42.238;24.684;2024-02-21T03:07:09;100.80;;;54.05;;
28078;SDS011;15388;42.238;24.684;2024-02-21T03:09:34;104.50;;;56.05;;
28078;SDS011;15388;42.238;24.684;2024-02-21T03:11:59;128.80;;;70.97;;
28078;SDS011;15388;42.238;24.684;2024-02-21T03:14:27;214.60;;;103.30;;
28078;SDS011;15388;42.238;24.684;2024-02-21T03:16:53;138.45;;;74.53;;
28078;SDS011;15388;42.238;24.684;2024-02-21T03:19:18;164.50;;;82.03;;
28078;SDS011;15388;42.238;24.684;2024-02-21T03:21:43;192.45;;;96.45;;
28078;SDS011;15388;42.238;24.684;2024-02-21T03:24:08;153.77;;;79.60;;
28078;SDS011;15388;42.238;24.684;2024-02-21T03:26:34;143.00;;;70.70;;
28078;SDS011;15388;42.238;24.684;2024-02-21T03:28:59;152.98;;;69.13;;
28078;SDS011;15388;42.238;24.684;2024-02-21T03:31:24;123.07;;;65.63;;
28078;SDS011;15388;42.238;24.684;2024-02-21T03:33:49;110.88;;;58.63;;
28078;SDS011;15388;42.238;24.684;2024-02-21T03:36:15;110.68;;;57.80;;
28078;SDS011;15388;42.238;24.684;2024-02-21T03:38:40;108.25;;;58.03;;
28078;SDS011;15388;42.238;24.684;2024-02-21T03:41:06;104.20;;;58.53;;
28078;SDS011;15388;42.238;24.684;2024-02-21T03:43:31;109.13;;;58.45;;
28078;SDS011;15388;42.238;24.684;2024-02-21T03:45:56;119.15;;;62.95;;
28078;SDS011;15388;42.238;24.684;2024-02-21T03:48:21;104.82;;;57.72;;
28078;SDS011;15388;42.238;24.684;2024-02-21T03:50:47;103.85;;;58.28;;
28078;SDS011;15388;42.238;24.684;2024-02-21T03:53:12;111.93;;;58.63;;
28078;SDS011;15388;42.238;24.684;2024-02-21T03:55:37;115.32;;;60.35;;
28078;SDS011;15388;42.238;24.684;2024-02-21T03:58:03;112.57;;;59.17;;
28078;SDS011;15388;42.238;24.684;2024-02-21T04:00:28;117.72;;;59.50;;
28078;SDS011;15388;42.238;24.684;2024-02-21T04:02:53;104.53;;;58.50;;
28078;SDS011;15388;42.238;24.684;2024-02-21T04:05:18;108.65;;;56.53;;
28078;SDS011;15388;42.238;24.684;2024-02-21T04:07:44;117.53;;;60.95;;
28078;SDS011;15388;42.238;24.684;2024-02-21T04:10:09;116.22;;;60.75;;
28078;SDS011;15388;42.238;24.684;2024-02-21T04:12:34;110.55;;;60.70;;
28078;SDS011;15388;42.238;24.684;2024-02-21T04:15:00;103.80;;;55.50;;
28078;SDS011;15388;42.238;24.684;2024-02-21T04:17:25;111.78;;;52.70;;
28078;SDS011;15388;42.238;24.684;2024-02-21T04:19:50;98.90;;;53.42;;
28078;SDS011;15388;42.238;24.684;2024-02-21T04:22:18;106.47;;;54.63;;
28078;SDS011;15388;42.238;24.684;2024-02-21T04:24:43;108.55;;;58.10;;
28078;SDS011;15388;42.238;24.684;2024-02-21T04:27:08;314.88;;;181.93;;
28078;SDS011;15388;42.238;24.684;2024-02-21T04:29:34;154.35;;;78.38;;
28078;SDS011;15388;42.238;24.684;2024-02-21T04:31:59;146.60;;;75.35;;
28078;SDS011;15388;42.238;24.684;2024-02-21T04:34:26;157.00;;;72.70;;
28078;SDS011;15388;42.238;24.684;2024-02-21T04:36:51;164.45;;;75.50;;
28078;SDS011;15388;42.238;24.684;2024-02-21T04:39:17;180.18;;;81.95;;
28078;SDS011;15388;42.238;24.684;2024-02-21T04:41:42;185.85;;;92.00;;
28078;SDS011;15388;42.238;24.684;2024-02-21T04:44:07;212.88;;;95.95;;
28078;SDS011;15388;42.238;24.684;2024-02-21T04:46:33;154.13;;;75.85;;
28078;SDS011;15388;42.238;24.684;2024-02-21T04:48:59;132.13;;;66.97;;
28078;SDS011;15388;42.238;24.684;2024-02-21T04:51:24;116.97;;;60.95;;
28078;SDS011;15388;42.238;24.684;2024-02-21T04:53:49;122.05;;;63.53;;
28078;SDS011;15388;42.238;24.684;2024-02-21T04:56:15;119.82;;;57.97;;
28078;SDS011;15388;42.238;24.684;2024-02-21T04:58:40;101.38;;;56.05;;
28078;SDS011;15388;42.238;24.684;2024-02-21T05:01:05;99.80;;;54.00;;
28078;SDS011;15388;42.238;24.684;2024-02-21T05:03:30;97.05;;;52.45;;
28078;SDS011;15388;42.238;24.684;2024-02-21T05:05:56;104.50;;;53.15;;
28078;SDS011;15388;42.238;24.684;2024-02-21T05:08:21;98.07;;;51.72;;
28078;SDS011;15388;42.238;24.684;2024-02-21T05:10:46;91.97;;;50.10;;
28078;SDS011;15388;42.238;24.684;2024-02-21T05:13:11;102.20;;;53.97;;
28078;SDS011;15388;42.238;24.684;2024-02-21T05:15:37;107.35;;;54.10;;
28078;SDS011;15388;42.238;24.684;2024-02-21T05:18:02;93.05;;;51.90;;
28078;SDS011;15388;42.238;24.684;2024-02-21T05:20:27;101.07;;;51.10;;
28078;SDS011;15388;42.238;24.684;2024-02-21T05:22:52;106.07;;;52.05;;
28078;SDS011;15388;42.238;24.684;2024-02-21T05:25:18;91.93;;;52.35;;
28078;SDS011;15388;42.238;24.684;2024-02-21T05:27:43;101.78;;;54.10;;
28078;SDS011;15388;42.238;24.684;2024-02-21T05:30:09;93.00;;;56.33;;
28078;SDS011;15388;42.238;24.684;2024-02-21T05:32:35;111.05;;;63.05;;
28078;SDS011;15388;42.238;24.684;2024-02-21T05:35:00;124.75;;;64.25;;
28078;SDS011;15388;42.238;24.684;2024-02-21T05:37:25;218.65;;;104.38;;
28078;SDS011;15388;42.238;24.684;2024-02-21T05:39:51;140.00;;;69.10;;
28078;SDS011;15388;42.238;24.684;2024-02-21T05:42:16;111.95;;;62.60;;
28078;SDS011;15388;42.238;24.684;2024-02-21T05:44:41;132.73;;;62.90;;
28078;SDS011;15388;42.238;24.684;2024-02-21T05:47:07;126.13;;;67.20;;
28078;SDS011;15388;42.238;24.684;2024-02-21T05:49:37;130.68;;;66.95;;
28078;SDS011;15388;42.238;24.684;2024-02-21T05:52:02;115.50;;;63.10;;
28078;SDS011;15388;42.238;24.684;2024-02-21T05:54:27;117.20;;;62.92;;
28078;SDS011;15388;42.238;24.684;2024-02-21T05:56:52;116.97;;;61.33;;
28078;SDS011;15388;42.238;24.684;2024-02-21T05:59:18;105.57;;;59.20;;
28078;SDS011;15388;42.238;24.684;2024-02-21T06:01:43;112.15;;;57.92;;
28078;SDS011;15388;42.238;24.684;2024-02-21T06:04:09;106.25;;;60.35;;
28078;SDS011;15388;42.238;24.684;2024-02-21T06:06:34;121.90;;;62.50;;
28078;SDS011;15388;42.238;24.684;2024-02-21T06:09:00;105.63;;;58.00;;
28078;SDS011;15388;42.238;24.684;2024-02-21T06:11:27;107.82;;;55.47;;
28078;SDS011;15388;42.238;24.684;2024-02-21T06:13:52;96.63;;;53.15;;
28078;SDS011;15388;42.238;24.684;2024-02-21T06:16:18;104.18;;;55.92;;
28078;SDS011;15388;42.238;24.684;2024-02-21T06:18:43;105.43;;;57.97;;
28078;SDS011;15388;42.238;24.684;2024-02-21T06:21:08;106.18;;;58.20;;
28078;SDS011;15388;42.238;24.684;2024-02-21T06:23:33;110.03;;;61.83;;
28078;SDS011;15388;42.238;24.684;2024-02-21T06:25:59;102.43;;;58.97;;
28078;SDS011;15388;42.238;24.684;2024-02-21T06:28:24;94.20;;;55.33;;
28078;SDS011;15388;42.238;24.684;2024-02-21T06:30:49;90.15;;;51.28;;
28078;SDS011;15388;42.238;24.684;2024-02-21T06:33:15;99.30;;;54.63;;
28078;SDS011;15388;42.238;24.684;2024-02-21T06:35:40;98.70;;;55.40;;
28078;SDS011;15388;42.238;24.684;2024-02-21T06:38:07;98.03;;;50.78;;
28078;SDS011;15388;42.238;24.684;2024-02-21T06:40:33;102.47;;;55.30;;
28078;SDS011;15388;42.238;24.684;2024-02-21T06:43:03;97.95;;;57.22;;
28078;SDS011;15388;42.238;24.684;2024-02-21T06:45:29;114.90;;;61.22;;
28078;SDS011;15388;42.238;24.684;2024-02-21T06:47:54;108.10;;;56.55;;
28078;SDS011;15388;42.238;24.684;2024-02-21T06:50:19;97.38;;;51.58;;
28078;SDS011;15388;42.238;24.684;2024-02-21T06:52:44;89.03;;;53.53;;
28078;SDS011;15388;42.238;24.684;2024-02-21T06:55:10;88.70;;;50.92;;
28078;SDS011;15388;42.238;24.684;2024-02-21T06:57:35;88.47;;;51.53;;
28078;SDS011;15388;42.238;24.684;2024-02-21T07:00:00;97.47;;;56.05;;
28078;SDS011;15388;42.238;24.684;2024-02-21T07:02:25;163.98;;;94.93;;
28078;SDS011;15388;42.238;24.684;2024-02-21T07:04:51;106.72;;;58.80;;
28078;SDS011;15388;42.238;24.684;2024-02-21T07:07:16;96.55;;;57.58;;
28078;SDS011;15388;42.238;24.684;2024-02-21T07:09:41;93.70;;;54.03;;
28078;SDS011;15388;42.238;24.684;2024-02-21T07:12:06;96.47;;;51.80;;
28078;SDS011;15388;42.238;24.684;2024-02-21T07:14:32;91.53;;;50.70;;
28078;SDS011;15388;42.238;24.684;2024-02-21T07:16:57;91.70;;;50.95;;
28078;SDS011;15388;42.238;24.684;2024-02-21T07:19:23;94.40;;;52.70;;
28078;SDS011;15388;42.238;24.684;2024-02-21T07:21:48;86.97;;;51.13;;
28078;SDS011;15388;42.238;24.684;2024-02-21T07:24:14;91.25;;;54.50;;
28078;SDS011;15388;42.238;24.684;2024-02-21T07:26:42;86.88;;;51.17;;
28078;SDS011;15388;42.238;24.684;2024-02-21T07:29:10;91.82;;;53.20;;
28078;SDS011;15388;42.238;24.684;2024-02-21T07:31:42;97.85;;;53.40;;
28078;SDS011;15388;42.238;24.684;2024-02-21T07:34:08;96.47;;;54.22;;
28078;SDS011;15388;42.238;24.684;2024-02-21T07:36:33;99.25;;;53.17;;
28078;SDS011;15388;42.238;24.684;2024-02-21T07:38:58;101.53;;;56.08;;
28078;SDS011;15388;42.238;24.684;2024-02-21T07:41:27;149.43;;;71.95;;
28078;SDS011;15388;42.238;24.684;2024-02-21T07:43:55;173.85;;;81.85;;
28078;SDS011;15388;42.238;24.684;2024-02-21T07:46:20;177.57;;;103.57;;
28078;SDS011;15388;42.238;24.684;2024-02-21T07:48:45;144.88;;;68.22;;
28078;SDS011;15388;42.238;24.684;2024-02-21T07:51:11;138.65;;;67.68;;
28078;SDS011;15388;42.238;24.684;2024-02-21T07:53:38;129.18;;;66.82;;
28078;SDS011;15388;42.238;24.684;2024-02-21T07:56:03;116.05;;;60.72;;
28078;SDS011;15388;42.238;24.684;2024-02-21T07:58:29;116.68;;;60.05;;
28078;SDS011;15388;42.238;24.684;2024-02-21T08:00:54;120.97;;;62.50;;
28078;SDS011;15388;42.238;24.684;2024-02-21T08:03:19;96.57;;;51.88;;
28078;SDS011;15388;42.238;24.684;2024-02-21T08:05:45;92.47;;;50.55;;
28078;SDS011;15388;42.238;24.684;2024-02-21T08:08:11;84.25;;;49.58;;
28078;SDS011;15388;42.238;24.684;2024-02-21T08:10:36;85.45;;;47.30;;
28078;SDS011;15388;42.238;24.684;2024-02-21T08:13:01;81.90;;;47.42;;
28078;SDS011;15388;42.238;24.684;2024-02-21T08:15:26;91.43;;;50.45;;
28078;SDS011;15388;42.238;24.684;2024-02-21T08:17:55;84.43;;;48.70;;
28078;SDS011;15388;42.238;24.684;2024-02-21T08:20:23;72.22;;;44.22;;
28078;SDS011;15388;42.238;24.684;2024-02-21T08:22:49;79.57;;;44.90;;
28078;SDS011;15388;42.238;24.684;2024-02-21T08:25:14;70.82;;;42.58;;
28078;SDS011;15388;42.238;24.684;2024-02-21T08:27:39;136.25;;;70.70;;
28078;SDS011;15388;42.238;24.684;2024-02-21T08:30:05;75.25;;;45.35;;
28078;SDS011;15388;42.238;24.684;2024-02-21T08:32:32;97.90;;;70.78;;
28078;SDS011;15388;42.238;24.684;2024-02-21T08:34:57;70.00;;;41.67;;
28078;SDS011;15388;42.238;24.684;2024-02-21T08:37:22;69.80;;;42.03;;
28078;SDS011;15388;42.238;24.684;2024-02-21T08:39:48;68.95;;;41.33;;
28078;SDS011;15388;42.238;24.684;2024-02-21T08:42:13;52.38;;;33.35;;
28078;SDS011;15388;42.238;24.684;2024-02-21T08:44:39;65.93;;;37.15;;
28078;SDS011;15388;42.238;24.684;2024-02-21T08:47:05;39.78;;;24.98;;
28078;SDS011;15388;42.238;24.684;2024-02-21T08:49:31;39.25;;;25.38;;
28078;SDS011;15388;42.238;24.684;2024-02-21T08:51:57;37.28;;;22.15;;
28078;SDS011;15388;42.238;24.684;2024-02-21T08:54:22;35.05;;;22.08;;
28078;SDS011;15388;42.238;24.684;2024-02-21T08:56:47;32.95;;;20.73;;
28078;SDS011;15388;42.238;24.684;2024-02-21T08:59:13;29.08;;;21.13;;
28078;SDS011;15388;42.238;24.684;2024-02-21T09:01:40;29.70;;;18.95;;
28078;SDS011;15388;42.238;24.684;2024-02-21T09:04:05;28.90;;;17.98;;
28078;SDS011;15388;42.238;24.684;2024-02-21T09:06:30;29.95;;;17.65;;
28078;SDS011;15388;42.238;24.684;2024-02-21T09:08:58;21.02;;;15.27;;
28078;SDS011;15388;42.238;24.684;2024-02-21T09:11:23;23.45;;;14.05;;
28078;SDS011;15388;42.238;24.684;2024-02-21T09:13:48;25.50;;;16.88;;
28078;SDS011;15388;42.238;24.684;2024-02-21T09:16:14;22.30;;;15.02;;
28078;SDS011;15388;42.238;24.684;2024-02-21T09:18:39;24.83;;;15.10;;
28078;SDS011;15388;42.238;24.684;2024-02-21T09:21:04;23.30;;;15.43;;
28078;SDS011;15388;42.238;24.684;2024-02-21T09:23:30;21.02;;;14.50;;
28078;SDS011;15388;42.238;24.684;2024-02-21T09:25:56;22.05;;;14.65;;
28078;SDS011;15388;42.238;24.684;2024-02-21T09:28:22;22.60;;;14.95;;
28078;SDS011;15388;42.238;24.684;2024-02-21T09:30:47;21.23;;;14.50;;
28078;SDS011;15388;42.238;24.684;2024-02-21T09:33:12;21.85;;;14.48;;
28078;SDS011;15388;42.238;24.684;2024-02-21T09:35:38;17.27;;;13.13;;
28078;SDS011;15388;42.238;24.684;2024-02-21T09:38:04;19.27;;;12.93;;
28078;SDS011;15388;42.238;24.684;2024-02-21T09:40:29;20.02;;;13.48;;
28078;SDS011;15388;42.238;24.684;2024-02-21T09:43:04;18.90;;;12.73;;
28078;SDS011;15388;42.238;24.684;2024-02-21T09:45:33;18.08;;;12.80;;
28078;SDS011;15388;42.238;24.684;2024-02-21T09:50:43;15.40;;;12.10;;
28078;SDS011;15388;42.238;24.684;2024-02-21T09:53:08;19.15;;;12.93;;
28078;SDS011;15388;42.238;24.684;2024-02-21T09:55:34;19.25;;;11.82;;
28078;SDS011;15388;42.238;24.684;2024-02-21T09:58:03;15.98;;;12.15;;
28078;SDS011;15388;42.238;24.684;2024-02-21T10:00:29;15.00;;;11.57;;
28078;SDS011;15388;42.238;24.684;2024-02-21T10:02:54;15.32;;;11.30;;
28078;SDS011;15388;42.238;24.684;2024-02-21T10:05:20;17.50;;;11.23;;
28078;SDS011;15388;42.238;24.684;2024-02-21T10:07:46;15.23;;;11.45;;
28078;SDS011;15388;42.238;24.684;2024-02-21T10:10:13;14.13;;;10.43;;
28078;SDS011;15388;42.238;24.684;2024-02-21T10:12:51;14.95;;;10.93;;
28078;SDS011;15388;42.238;24.684;2024-02-21T10:15:20;13.13;;;9.80;;
28078;SDS011;15388;42.238;24.684;2024-02-21T10:17:46;16.02;;;11.43;;
28078;SDS011;15388;42.238;24.684;2024-02-21T10:20:12;18.98;;;13.38;;
28078;SDS011;15388;42.238;24.684;2024-02-21T10:22:37;11.25;;;9.63;;
28078;SDS011;15388;42.238;24.684;2024-02-21T10:25:13;21.83;;;14.23;;
28078;SDS011;15388;42.238;24.684;2024-02-21T10:27:39;21.88;;;16.13;;
28078;SDS011;15388;42.238;24.684;2024-02-21T10:30:05;16.58;;;13.23;;
28078;SDS011;15388;42.238;24.684;2024-02-21T10:32:30;12.15;;;9.57;;
28078;SDS011;15388;42.238;24.684;2024-02-21T10:35:03;15.95;;;10.63;;
28078;SDS011;15388;42.238;24.684;2024-02-21T10:37:31;13.45;;;10.70;;
28078;SDS011;15388;42.238;24.684;2024-02-21T10:40:00;13.90;;;9.82;;
28078;SDS011;15388;42.238;24.684;2024-02-21T10:44:51;13.10;;;8.27;;
28078;SDS011;15388;42.238;24.684;2024-02-21T10:47:17;10.85;;;9.15;;
28078;SDS011;15388;42.238;24.684;2024-02-21T10:49:46;13.73;;;9.70;;
28078;SDS011;15388;42.238;24.684;2024-02-21T10:52:14;11.00;;;8.60;;
28078;SDS011;15388;42.238;24.684;2024-02-21T10:54:44;10.70;;;7.90;;
28078;SDS011;15388;42.238;24.684;2024-02-21T10:57:11;14.07;;;10.32;;
28078;SDS011;15388;42.238;24.684;2024-02-21T10:59:37;9.00;;;7.40;;
28078;SDS011;15388;42.238;24.684;2024-02-21T11:02:03;10.82;;;7.75;;
28078;SDS011;15388;42.238;24.684;2024-02-21T11:04:28;10.15;;;7.78;;
28078;SDS011;15388;42.238;24.684;2024-02-21T11:06:55;11.38;;;8.70;;
28078;SDS011;15388;42.238;24.684;2024-02-21T11:09:29;9.57;;;7.78;;
28078;SDS011;15388;42.238;24.684;2024-02-21T11:11:55;11.43;;;7.57;;
28078;SDS011;15388;42.238;24.684;2024-02-21T11:14:20;8.88;;;7.22;;
28078;SDS011;15388;42.238;24.684;2024-02-21T11:16:46;8.95;;;7.53;;
28078;SDS011;15388;42.238;24.684;2024-02-21T11:21:43;7.93;;;6.85;;
28078;SDS011;15388;42.238;24.684;2024-02-21T11:24:08;8.13;;;6.82;;
28078;SDS011;15388;42.238;24.684;2024-02-21T11:26:36;8.70;;;7.20;;
28078;SDS011;15388;42.238;24.684;2024-02-21T11:29:02;10.70;;;8.05;;
28078;SDS011;15388;42.238;24.684;2024-02-21T11:31:40;8.55;;;6.97;;
28078;SDS011;15388;42.238;24.684;2024-02-21T11:34:12;9.90;;;8.13;;
28078;SDS011;15388;42.238;24.684;2024-02-21T11:36:50;9.68;;;7.15;;
28078;SDS011;15388;42.238;24.684;2024-02-21T11:39:19;11.98;;;7.28;;
28078;SDS011;15388;42.238;24.684;2024-02-21T11:41:47;9.68;;;7.13;;
28078;SDS011;15388;42.238;24.684;2024-02-21T11:44:12;7.82;;;6.10;;
28078;SDS011;15388;42.238;24.684;2024-02-21T11:46:37;9.82;;;7.65;;
28078;SDS011;15388;42.238;24.684;2024-02-21T11:49:03;10.25;;;7.20;;
28078;SDS011;15388;42.238;24.684;2024-02-21T11:51:28;10.52;;;8.20;;
28078;SDS011;15388;42.238;24.684;2024-02-21T11:53:53;7.40;;;6.57;;
28078;SDS011;15388;42.238;24.684;2024-02-21T11:56:19;7.43;;;6.35;;
28078;SDS011;15388;42.238;24.684;2024-02-21T11:58:45;8.55;;;7.05;;
28078;SDS011;15388;42.238;24.684;2024-02-21T12:01:11;11.53;;;7.37;;
28078;SDS011;15388;42.238;24.684;2024-02-21T12:03:36;10.48;;;7.95;;
28078;SDS011;15388;42.238;24.684;2024-02-21T12:06:02;10.73;;;7.03;;
28078;SDS011;15388;42.238;24.684;2024-02-21T12:08:28;11.55;;;7.82;;
28078;SDS011;15388;42.238;24.684;2024-02-21T12:11:15;7.30;;;6.50;;
28078;SDS011;15388;42.238;24.684;2024-02-21T12:13:40;11.73;;;7.63;;
28078;SDS011;15388;42.238;24.684;2024-02-21T12:16:05;9.38;;;7.15;;
28078;SDS011;15388;42.238;24.684;2024-02-21T12:18:31;9.30;;;7.22;;
28078;SDS011;15388;42.238;24.684;2024-02-21T12:20:56;9.32;;;7.55;;
28078;SDS011;15388;42.238;24.684;2024-02-21T12:23:23;10.30;;;8.05;;
28078;SDS011;15388;42.238;24.684;2024-02-21T12:25:51;11.93;;;9.43;;
28078;SDS011;15388;42.238;24.684;2024-02-21T12:28:19;10.23;;;7.38;;
28078;SDS011;15388;42.238;24.684;2024-02-21T12:30:44;9.48;;;7.03;;
28078;SDS011;15388;42.238;24.684;2024-02-21T12:33:09;7.43;;;5.97;;
28078;SDS011;15388;42.238;24.684;2024-02-21T12:35:35;7.35;;;5.70;;
28078;SDS011;15388;42.238;24.684;2024-02-21T12:38:00;7.70;;;5.70;;
28078;SDS011;15388;42.238;24.684;2024-02-21T12:40:26;6.88;;;6.00;;
28078;SDS011;15388;42.238;24.684;2024-02-21T12:42:57;8.00;;;6.40;;
28078;SDS011;15388;42.238;24.684;2024-02-21T12:45:22;8.80;;;7.18;;
28078;SDS011;15388;42.238;24.684;2024-02-21T12:47:47;9.07;;;6.75;;
28078;SDS011;15388;42.238;24.684;2024-02-21T12:50:13;15.87;;;8.90;;
28078;SDS011;15388;42.238;24.684;2024-02-21T12:52:40;9.55;;;6.45;;
28078;SDS011;15388;42.238;24.684;2024-02-21T12:55:05;8.25;;;6.60;;
28078;SDS011;15388;42.238;24.684;2024-02-21T12:57:30;6.03;;;5.43;;
28078;SDS011;15388;42.238;24.684;2024-02-21T12:59:56;28.17;;;15.95;;
28078;SDS011;15388;42.238;24.684;2024-02-21T13:02:21;21.98;;;12.15;;
28078;SDS011;15388;42.238;24.684;2024-02-21T13:04:46;8.80;;;6.47;;
28078;SDS011;15388;42.238;24.684;2024-02-21T13:07:12;27.83;;;15.73;;
28078;SDS011;15388;42.238;24.684;2024-02-21T13:09:37;21.98;;;11.98;;
28078;SDS011;15388;42.238;24.684;2024-02-21T13:12:02;9.43;;;7.38;;
28078;SDS011;15388;42.238;24.684;2024-02-21T13:14:27;8.20;;;6.20;;
28078;SDS011;15388;42.238;24.684;2024-02-21T13:16:53;21.17;;;7.95;;
28078;SDS011;15388;42.238;24.684;2024-02-21T13:19:18;8.30;;;6.40;;
28078;SDS011;15388;42.238;24.684;2024-02-21T13:21:43;8.07;;;6.32;;
28078;SDS011;15388;42.238;24.684;2024-02-21T13:24:09;11.73;;;7.55;;
28078;SDS011;15388;42.238;24.684;2024-02-21T13:26:34;27.10;;;16.00;;
28078;SDS011;15388;42.238;24.684;2024-02-21T13:28:59;9.73;;;7.20;;
28078;SDS011;15388;42.238;24.684;2024-02-21T13:31:24;11.90;;;7.53;;
28078;SDS011;15388;42.238;24.684;2024-02-21T13:33:50;11.43;;;6.80;;
28078;SDS011;15388;42.238;24.684;2024-02-21T13:36:15;14.75;;;6.55;;
28078;SDS011;15388;42.238;24.684;2024-02-21T13:38:41;12.55;;;6.70;;
28078;SDS011;15388;42.238;24.684;2024-02-21T13:41:06;42.25;;;26.13;;
28078;SDS011;15388;42.238;24.684;2024-02-21T13:43:32;7.57;;;6.68;;
28078;SDS011;15388;42.238;24.684;2024-02-21T13:45:58;9.05;;;6.60;;
28078;SDS011;15388;42.238;24.684;2024-02-21T13:48:24;10.73;;;6.10;;
28078;SDS011;15388;42.238;24.684;2024-02-21T13:50:49;8.40;;;6.78;;
28078;SDS011;15388;42.238;24.684;2024-02-21T13:53:14;8.07;;;6.00;;
28078;SDS011;15388;42.238;24.684;2024-02-21T13:55:40;8.13;;;6.70;;
28078;SDS011;15388;42.238;24.684;2024-02-21T13:58:05;13.00;;;6.43;;
28078;SDS011;15388;42.238;24.684;2024-02-21T14:00:31;8.63;;;5.90;;
28078;SDS011;15388;42.238;24.684;2024-02-21T14:02:59;9.45;;;6.13;;
28078;SDS011;15388;42.238;24.684;2024-02-21T14:05:24;9.52;;;6.40;;
28078;SDS011;15388;42.238;24.684;2024-02-21T14:07:50;7.00;;;5.87;;
28078;SDS011;15388;42.238;24.684;2024-02-21T14:10:15;8.80;;;6.57;;